Time;durP1;ratioP1;P1;durP2;ratioP2;P2;SDS_P1;SDS_P2;PMS_P1;PMS_P2;Temp;Humidity;BMP_temperature;BMP_pressure;BME280_temperature;BME280_humidity;BME280_pressure;Samples;Min_cycle;Max_cycle;Signal;HPM_P1;HPM_P2
2022/01/01 00:00:20;;;;;;;180.35;115.08;;;6.70;99.90;;;;;;1953010;73;21066;-78
2022/01/01 00:02:46;;;;;;;158.78;107.10;;;6.70;99.90;;;;;;1953494;73;21048;-78
2022/01/01 00:05:12;;;;;;;175.57;110.75;;;6.70;99.90;;;;;;1954115;73;21070;-77
2022/01/01 00:07:44;;;;;;;166.62;108.85;;;6.80;99.90;;;;;;1953283;73;21078;-74
2022/01/01 00:10:09;;;;;;;164.82;107.52;;;6.80;99.90;;;;;;1953018;72;21151;-76
2022/01/01 00:12:35;;;;;;;170.72;104.12;;;6.90;99.90;;;;;;1953327;73;21155;-77
2022/01/01 00:15:01;;;;;;;161.35;106.65;;;6.90;99.90;;;;;;1953846;73;21066;-76
2022/01/01 00:17:27;;;;;;;163.15;106.30;;;7.00;99.90;;;;;;1954485;73;21148;-76
2022/01/01 00:19:53;;;;;;;133.97;91.50;;;7.00;99.90;;;;;;1954383;73;21270;-76
2022/01/01 00:22:19;;;;;;;139.77;93.20;;;6.90;99.90;;;;;;2002782;70;21249;-76
2022/01/01 00:24:45;;;;;;;129.97;85.40;;;6.90;99.90;;;;;;1953514;73;21075;-76
2022/01/01 00:27:12;;;;;;;125.07;85.92;;;6.80;99.90;;;;;;1953888;73;21082;-76
2022/01/01 00:29:38;;;;;;;134.70;89.72;;;7.00;99.90;;;;;;2022895;69;21525;-76
2022/01/01 00:32:04;;;;;;;107.95;72.45;;;6.90;99.90;;;;;;2019325;70;21439;-76
2022/01/01 00:34:30;;;;;;;112.22;67.97;;;6.80;99.90;;;;;;2019086;69;21044;-76
2022/01/01 00:36:56;;;;;;;114.72;72.47;;;6.80;99.90;;;;;;2021725;69;21058;-77
2022/01/01 00:39:22;;;;;;;111.22;70.12;;;6.90;99.90;;;;;;2016668;71;21047;-76
2022/01/01 00:41:48;;;;;;;115.28;76.12;;;7.00;99.90;;;;;;2021472;71;21074;-76
2022/01/01 00:44:15;;;;;;;109.67;68.70;;;7.10;99.90;;;;;;2015127;70;21104;-76
2022/01/01 00:46:41;;;;;;;105.27;69.53;;;7.10;99.90;;;;;;2022756;71;21132;-76
2022/01/01 00:49:07;;;;;;;102.30;67.90;;;7.10;99.90;;;;;;2023958;71;21188;-76
2022/01/01 00:51:33;;;;;;;104.65;65.22;;;7.20;99.90;;;;;;2006308;70;21127;-76
2022/01/01 00:53:59;;;;;;;104.17;67.87;;;7.10;99.90;;;;;;2022194;70;21097;-76
2022/01/01 00:56:26;;;;;;;100.95;66.62;;;7.10;99.90;;;;;;2016967;70;21061;-76
2022/01/01 00:58:52;;;;;;;119.08;74.03;;;7.20;99.90;;;;;;2013307;70;21022;-76
2022/01/01 01:01:18;;;;;;;118.65;71.35;;;7.10;99.90;;;;;;2020859;70;21155;-76
2022/01/01 01:03:45;;;;;;;118.72;73.78;;;7.20;99.90;;;;;;2015910;69;21115;-76
2022/01/01 01:06:13;;;;;;;125.00;74.95;;;7.20;99.90;;;;;;2025690;70;21058;-76
2022/01/01 01:08:39;;;;;;;98.72;64.60;;;7.20;99.90;;;;;;2024202;69;21184;-76
2022/01/01 01:11:08;;;;;;;96.25;64.62;;;7.20;99.90;;;;;;2024179;70;21059;-76
2022/01/01 01:13:33;;;;;;;108.75;66.07;;;7.20;99.90;;;;;;2018116;70;21084;-76
2022/01/01 01:16:00;;;;;;;103.70;66.17;;;7.30;99.90;;;;;;2014863;71;21063;-77
2022/01/01 01:18:26;;;;;;;100.38;64.70;;;7.40;99.90;;;;;;2014834;70;21518;-76
2022/01/01 01:20:52;;;;;;;99.00;63.60;;;7.50;99.90;;;;;;2019358;70;21506;-75
2022/01/01 01:23:18;;;;;;;104.40;65.08;;;7.50;99.90;;;;;;2030487;71;21615;-76
2022/01/01 01:25:45;;;;;;;115.85;69.82;;;7.50;99.90;;;;;;2014565;71;21522;-76
2022/01/01 01:28:11;;;;;;;109.35;68.62;;;7.50;99.90;;;;;;2016132;71;21440;-77
2022/01/01 01:30:37;;;;;;;102.85;65.78;;;7.50;99.90;;;;;;2019594;70;21051;-75
2022/01/01 01:33:04;;;;;;;113.17;71.82;;;7.50;99.90;;;;;;2019547;69;21124;-75
2022/01/01 01:35:30;;;;;;;110.88;68.07;;;7.50;99.90;;;;;;2019756;69;21557;-76
2022/01/01 01:37:56;;;;;;;107.72;66.15;;;7.50;99.90;;;;;;2023275;70;21620;-75
2022/01/01 01:40:22;;;;;;;100.35;64.03;;;7.60;99.90;;;;;;2017670;69;21431;-75
2022/01/01 01:42:48;;;;;;;106.45;62.70;;;7.70;99.90;;;;;;2025221;70;21494;-75
2022/01/01 01:45:20;;;;;;;92.40;60.52;;;7.70;99.90;;;;;;2015219;70;21539;-75
2022/01/01 01:47:45;;;;;;;87.08;55.38;;;7.70;99.90;;;;;;2016123;70;21071;-75
2022/01/01 01:50:11;;;;;;;89.95;55.65;;;7.70;99.90;;;;;;2017585;70;21136;-76
2022/01/01 01:52:37;;;;;;;76.80;49.23;;;7.60;99.90;;;;;;2025141;70;21090;-76
2022/01/01 01:55:04;;;;;;;98.90;63.20;;;7.60;99.90;;;;;;2019570;70;21059;-76
2022/01/01 01:57:30;;;;;;;103.05;60.48;;;7.60;99.90;;;;;;2015551;70;21096;-75
2022/01/01 01:59:56;;;;;;;102.27;59.45;;;7.60;99.90;;;;;;2027118;70;21047;-76
2022/01/01 02:02:22;;;;;;;90.03;57.35;;;7.60;99.90;;;;;;2016773;70;21116;-76
2022/01/01 02:04:48;;;;;;;83.58;54.20;;;7.70;99.90;;;;;;2020653;70;21036;-75
2022/01/01 02:07:14;;;;;;;86.53;55.63;;;7.70;99.90;;;;;;2020839;70;21124;-76
2022/01/01 02:09:40;;;;;;;88.27;60.35;;;7.70;99.90;;;;;;2018469;69;21144;-76
2022/01/01 02:12:07;;;;;;;93.00;57.65;;;7.70;99.90;;;;;;2013325;69;21175;-76
2022/01/01 02:14:49;;;;;;;92.17;56.13;;;7.90;99.90;;;;;;2019518;71;21047;-75
2022/01/01 02:19:28;;;;;;;93.62;55.23;;;7.90;99.90;;;;;;2017398;71;21134;-76
2022/01/01 02:21:55;;;;;;;82.35;56.28;;;7.90;99.90;;;;;;2022984;70;21061;-76
2022/01/01 02:24:21;;;;;;;75.22;50.95;;;7.80;99.90;;;;;;2022053;70;21486;-75
2022/01/01 02:26:47;;;;;;;83.78;53.63;;;7.80;99.90;;;;;;2023292;71;21063;-76
2022/01/01 02:29:13;;;;;;;82.53;52.53;;;7.90;99.90;;;;;;2014498;70;21124;-76
2022/01/01 02:31:39;;;;;;;77.47;51.53;;;7.90;99.90;;;;;;2018965;70;21063;-76
2022/01/01 02:34:06;;;;;;;76.28;50.70;;;7.90;99.90;;;;;;2023283;69;21198;-76
2022/01/01 02:36:32;;;;;;;88.45;53.68;;;7.90;99.90;;;;;;2021245;69;21104;-77
2022/01/01 02:38:58;;;;;;;80.07;53.60;;;7.90;99.90;;;;;;2020229;70;21517;-76
2022/01/01 02:41:26;;;;;;;79.67;50.65;;;7.80;99.90;;;;;;2022279;70;21424;-76
2022/01/01 02:43:52;;;;;;;81.17;51.95;;;7.80;99.90;;;;;;2021887;70;21132;-76
2022/01/01 02:46:18;;;;;;;78.20;52.33;;;7.80;99.90;;;;;;2019048;71;21123;-76
2022/01/01 02:48:45;;;;;;;81.10;52.95;;;7.90;99.90;;;;;;2017664;70;21214;-76
2022/01/01 02:51:12;;;;;;;82.85;54.27;;;7.90;99.90;;;;;;2021675;70;21055;-76
2022/01/01 02:53:38;;;;;;;77.53;50.90;;;8.10;99.90;;;;;;2016607;70;21054;-76
2022/01/01 02:56:04;;;;;;;79.67;49.05;;;8.20;99.90;;;;;;2017712;70;21201;-76
2022/01/01 02:58:30;;;;;;;80.10;50.80;;;8.10;99.90;;;;;;2015350;69;21155;-75
2022/01/01 03:00:56;;;;;;;71.72;48.70;;;8.10;99.90;;;;;;2025306;70;21058;-76
2022/01/01 03:03:22;;;;;;;71.02;48.33;;;8.00;99.90;;;;;;2020767;70;21117;-76
2022/01/01 03:05:48;;;;;;;72.45;50.17;;;8.10;99.90;;;;;;2025099;70;21475;-76
2022/01/01 03:08:14;;;;;;;79.05;49.67;;;8.00;99.90;;;;;;2012498;71;21479;-76
2022/01/01 03:10:40;;;;;;;79.37;50.65;;;8.00;99.90;;;;;;2020157;70;21495;-75
2022/01/01 03:13:07;;;;;;;75.45;50.78;;;8.00;99.90;;;;;;2019408;69;21456;-75
2022/01/01 03:15:33;;;;;;;84.35;49.83;;;8.00;99.90;;;;;;2020259;69;21528;-75
2022/01/01 03:18:00;;;;;;;79.92;49.25;;;8.00;99.90;;;;;;2014281;69;21148;-75
2022/01/01 03:20:26;;;;;;;80.60;49.05;;;7.90;99.90;;;;;;2020346;69;21125;-76
2022/01/01 03:22:53;;;;;;;73.87;47.50;;;7.90;99.90;;;;;;2026500;71;21084;-75
2022/01/01 03:25:19;;;;;;;76.60;45.38;;;7.90;99.90;;;;;;2021087;70;21136;-75
2022/01/01 03:27:45;;;;;;;73.02;44.88;;;7.90;99.90;;;;;;2021203;70;21539;-76
2022/01/01 03:30:11;;;;;;;72.55;45.78;;;8.10;99.90;;;;;;2019136;70;21532;-75
2022/01/01 03:32:37;;;;;;;76.20;45.90;;;8.00;99.90;;;;;;2025384;70;21476;-76
2022/01/01 03:35:03;;;;;;;67.58;45.65;;;8.00;99.90;;;;;;2023603;70;21647;-76
2022/01/01 03:37:29;;;;;;;70.22;43.92;;;8.00;99.90;;;;;;2022664;70;21543;-76
2022/01/01 03:39:55;;;;;;;76.35;45.78;;;7.90;99.90;;;;;;2024545;70;21071;-75
2022/01/01 03:42:22;;;;;;;69.25;44.42;;;7.90;99.90;;;;;;2024169;70;21063;-76
2022/01/01 03:44:48;;;;;;;77.72;47.38;;;7.90;99.90;;;;;;2026344;69;21111;-76
2022/01/01 03:47:14;;;;;;;65.80;45.90;;;7.90;99.90;;;;;;2014481;70;21127;-76
2022/01/01 03:49:40;;;;;;;73.75;44.58;;;7.90;99.90;;;;;;2017329;69;21167;-76
2022/01/01 03:52:06;;;;;;;83.78;45.92;;;8.00;99.90;;;;;;2015176;70;21070;-76
2022/01/01 03:54:32;;;;;;;67.22;45.43;;;7.90;99.90;;;;;;2017884;70;21117;-76
2022/01/01 03:56:59;;;;;;;66.47;42.48;;;7.90;99.90;;;;;;2016364;70;21128;-76
2022/01/01 03:59:25;;;;;;;70.65;44.30;;;8.00;99.90;;;;;;2021950;70;21053;-75
2022/01/01 04:01:51;;;;;;;68.28;42.23;;;8.00;99.90;;;;;;2014780;70;21113;-75
2022/01/01 04:04:17;;;;;;;68.60;42.17;;;8.00;99.90;;;;;;2024206;70;21051;-75
2022/01/01 04:06:43;;;;;;;63.68;38.73;;;8.10;99.90;;;;;;2018811;70;21058;-76
2022/01/01 04:09:09;;;;;;;59.18;39.25;;;8.10;99.90;;;;;;2017892;70;21055;-76
2022/01/01 04:11:36;;;;;;;65.08;39.95;;;8.10;99.90;;;;;;2022681;70;21043;-75
2022/01/01 04:14:02;;;;;;;57.53;38.83;;;8.10;99.90;;;;;;2023001;71;21035;-75
2022/01/01 04:16:28;;;;;;;61.10;39.92;;;8.10;99.90;;;;;;2017638;70;21051;-75
2022/01/01 04:18:54;;;;;;;67.85;40.00;;;8.10;99.90;;;;;;2016070;70;21057;-75
2022/01/01 04:21:20;;;;;;;67.27;40.67;;;8.10;99.90;;;;;;2022485;70;21054;-75
2022/01/01 04:23:46;;;;;;;58.17;39.20;;;8.10;99.90;;;;;;2020131;69;21027;-76
2022/01/01 04:26:12;;;;;;;60.10;39.50;;;8.10;99.90;;;;;;2020614;70;21059;-75
2022/01/01 04:28:40;;;;;;;63.05;38.60;;;8.10;99.90;;;;;;2025006;70;21117;-75
2022/01/01 04:31:06;;;;;;;60.58;38.15;;;8.10;99.90;;;;;;2018963;70;21164;-75
2022/01/01 04:33:32;;;;;;;67.37;38.75;;;8.10;99.90;;;;;;2020830;70;21028;-76
2022/01/01 04:35:59;;;;;;;57.33;38.50;;;8.20;99.90;;;;;;2017294;70;21050;-75
2022/01/01 04:38:46;;;;;;;60.88;38.60;;;8.10;99.90;;;;;;2021065;69;21058;-76
2022/01/01 04:40:52;;;;;;;57.00;37.20;;;8.10;99.90;;;;;;2006146;71;21072;-75
2022/01/01 04:43:19;;;;;;;56.37;35.90;;;8.10;99.90;;;;;;2017980;70;21054;-75
2022/01/01 04:45:45;;;;;;;62.05;36.63;;;8.10;99.90;;;;;;2013287;71;21055;-75
2022/01/01 04:48:11;;;;;;;54.23;35.20;;;8.10;99.90;;;;;;2020629;70;21199;-76
2022/01/01 04:50:37;;;;;;;50.40;34.27;;;8.20;99.90;;;;;;2024508;70;21059;-75
2022/01/01 04:53:03;;;;;;;46.53;31.25;;;8.20;99.90;;;;;;2021583;70;21028;-75
2022/01/01 04:55:29;;;;;;;53.15;30.97;;;8.20;99.90;;;;;;2007621;70;21054;-75
2022/01/01 04:57:56;;;;;;;49.38;31.42;;;8.10;99.90;;;;;;2013807;70;21127;-75
2022/01/01 05:00:22;;;;;;;49.88;30.20;;;8.00;99.90;;;;;;2017533;70;21495;-75
2022/01/01 05:02:48;;;;;;;39.03;28.75;;;7.90;99.90;;;;;;2017684;70;21584;-75
2022/01/01 05:05:14;;;;;;;44.38;29.37;;;7.80;99.90;;;;;;2019332;69;21428;-75
2022/01/01 05:07:43;;;;;;;44.23;27.77;;;7.80;99.90;;;;;;2015302;70;21624;-75
2022/01/01 05:10:08;;;;;;;38.35;26.05;;;7.80;99.90;;;;;;2018725;70;21206;-74
2022/01/01 05:12:35;;;;;;;43.35;26.40;;;7.70;99.90;;;;;;2021087;70;21061;-74
2022/01/01 05:15:01;;;;;;;37.08;24.35;;;7.60;99.90;;;;;;2015269;69;21106;-74
2022/01/01 05:17:27;;;;;;;34.73;25.30;;;7.60;99.90;;;;;;2017905;71;21085;-74
2022/01/01 05:19:53;;;;;;;38.92;24.47;;;7.40;99.90;;;;;;2020009;71;21116;-74
2022/01/01 05:22:20;;;;;;;42.55;25.37;;;7.40;99.90;;;;;;2014296;69;21066;-74
2022/01/01 05:24:46;;;;;;;32.30;23.30;;;7.40;99.90;;;;;;2023233;70;21045;-74
2022/01/01 05:27:12;;;;;;;34.00;23.85;;;7.30;99.90;;;;;;2024547;70;21148;-74
2022/01/01 05:29:38;;;;;;;36.85;23.77;;;7.30;99.90;;;;;;2022574;70;21023;-74
2022/01/01 05:32:04;;;;;;;41.13;23.95;;;7.20;99.90;;;;;;2022808;70;21140;-74
2022/01/01 05:34:30;;;;;;;35.73;23.20;;;7.00;99.90;;;;;;2014477;70;21159;-74
2022/01/01 05:36:56;;;;;;;36.17;24.10;;;7.10;99.90;;;;;;2015389;71;21205;-74
2022/01/01 05:39:23;;;;;;;33.48;22.80;;;6.90;99.90;;;;;;2022997;70;21012;-74
2022/01/01 05:41:54;;;;;;;40.15;23.25;;;7.10;99.90;;;;;;2026356;71;21058;-75
2022/01/01 05:44:16;;;;;;;34.10;22.77;;;7.10;99.90;;;;;;2020314;70;21153;-74
2022/01/01 05:46:43;;;;;;;33.02;24.40;;;7.00;99.90;;;;;;2021160;70;21206;-74
2022/01/01 05:49:09;;;;;;;42.80;24.98;;;6.90;99.90;;;;;;2018868;69;21055;-74
2022/01/01 05:51:35;;;;;;;40.03;24.07;;;6.70;99.90;;;;;;2011193;69;21132;-74
2022/01/01 05:54:01;;;;;;;31.80;22.52;;;6.80;99.90;;;;;;2018354;70;21183;-74
2022/01/01 05:56:27;;;;;;;35.05;22.75;;;6.70;99.90;;;;;;2017093;70;21133;-74
2022/01/01 05:58:53;;;;;;;37.78;23.98;;;6.60;99.90;;;;;;2013973;70;21053;-74
2022/01/01 06:01:19;;;;;;;36.83;23.05;;;6.60;99.90;;;;;;2020664;69;21057;-74
2022/01/01 06:03:45;;;;;;;37.48;24.32;;;6.50;99.90;;;;;;2022879;70;21135;-74
2022/01/01 06:06:12;;;;;;;39.95;24.07;;;6.50;99.90;;;;;;2021468;69;21133;-74
2022/01/01 06:08:38;;;;;;;32.58;22.30;;;6.50;99.90;;;;;;2026493;70;21059;-75
2022/01/01 06:11:04;;;;;;;37.73;23.92;;;6.40;99.90;;;;;;2028196;71;21055;-74
2022/01/01 06:13:30;;;;;;;36.42;23.38;;;6.50;99.90;;;;;;2012183;71;21219;-74
2022/01/01 06:15:56;;;;;;;48.63;23.75;;;6.50;99.90;;;;;;2018390;70;21067;-74
2022/01/01 06:18:22;;;;;;;37.48;23.50;;;6.40;99.90;;;;;;2026136;70;21067;-74
2022/01/01 06:20:48;;;;;;;40.17;23.38;;;6.40;99.90;;;;;;2015713;70;21062;-73
2022/01/01 06:23:14;;;;;;;41.83;25.82;;;6.40;99.90;;;;;;2017946;70;21160;-74
2022/01/01 06:25:41;;;;;;;38.17;23.77;;;6.50;99.90;;;;;;2013856;70;21128;-74
2022/01/01 06:28:07;;;;;;;34.55;23.27;;;6.60;99.90;;;;;;2021197;70;21058;-74
2022/01/01 06:30:36;;;;;;;35.98;25.30;;;6.60;99.90;;;;;;2018363;69;21489;-74
2022/01/01 06:33:02;;;;;;;38.17;22.93;;;6.60;99.90;;;;;;2012397;70;21028;-74
2022/01/01 06:35:28;;;;;;;36.83;22.50;;;6.70;99.90;;;;;;2016735;70;21131;-74
2022/01/01 06:37:54;;;;;;;34.03;22.73;;;6.70;99.90;;;;;;2011267;70;21129;-74
2022/01/01 06:40:20;;;;;;;32.88;21.42;;;6.80;99.90;;;;;;2014354;70;21018;-74
2022/01/01 06:42:46;;;;;;;31.40;21.42;;;6.90;99.90;;;;;;2017640;70;21107;-74
2022/01/01 06:45:12;;;;;;;32.00;21.90;;;7.10;99.90;;;;;;2017144;70;21054;-74
2022/01/01 06:47:39;;;;;;;36.70;23.27;;;7.00;99.90;;;;;;2023854;70;21059;-74
2022/01/01 06:50:05;;;;;;;39.23;23.45;;;7.10;99.90;;;;;;2016792;71;21102;-74
2022/01/01 06:52:31;;;;;;;37.15;23.25;;;7.20;99.90;;;;;;2023506;70;21144;-74
2022/01/01 06:54:57;;;;;;;41.15;23.65;;;7.10;99.90;;;;;;2020562;69;21058;-74
2022/01/01 06:57:23;;;;;;;40.52;23.50;;;7.30;99.90;;;;;;2015410;70;21070;-74
2022/01/01 06:59:49;;;;;;;33.92;22.40;;;7.20;99.90;;;;;;2021327;70;21019;-73
2022/01/01 07:02:15;;;;;;;48.30;23.85;;;7.20;99.90;;;;;;2015548;69;21127;-73
2022/01/01 07:04:41;;;;;;;43.98;24.02;;;7.10;99.90;;;;;;2015492;70;21198;-73
2022/01/01 07:07:09;;;;;;;33.02;21.33;;;7.10;99.90;;;;;;2019759;71;21059;-74
2022/01/01 07:09:35;;;;;;;36.90;21.55;;;7.10;99.90;;;;;;2015904;71;21072;-74
2022/01/01 07:12:01;;;;;;;28.75;20.40;;;7.10;99.90;;;;;;2020254;70;21164;-73
2022/01/01 07:14:28;;;;;;;27.82;21.00;;;7.00;99.90;;;;;;2014225;71;21126;-72
2022/01/01 07:16:54;;;;;;;29.37;20.52;;;7.10;99.90;;;;;;2013275;69;21174;-72
2022/01/01 07:19:20;;;;;;;32.30;21.10;;;7.00;99.90;;;;;;2011237;70;21031;-73
2022/01/01 07:21:46;;;;;;;33.15;20.27;;;7.10;99.90;;;;;;2019672;70;21087;-72
2022/01/01 07:24:12;;;;;;;31.00;19.62;;;7.10;99.90;;;;;;2016150;69;21061;-73
2022/01/01 07:26:38;;;;;;;29.25;18.60;;;7.20;99.90;;;;;;2023572;70;21078;-72
2022/01/01 07:29:04;;;;;;;26.93;18.70;;;7.20;99.90;;;;;;2018081;69;21062;-74
2022/01/01 07:31:30;;;;;;;32.30;18.45;;;7.20;99.90;;;;;;2022239;70;21552;-73
2022/01/01 07:33:57;;;;;;;29.72;18.05;;;7.20;99.90;;;;;;2018438;71;21498;-73
2022/01/01 07:36:23;;;;;;;31.27;18.62;;;7.10;99.90;;;;;;2015565;71;21055;-73
2022/01/01 07:38:49;;;;;;;26.33;18.82;;;7.10;99.90;;;;;;2021889;71;21124;-73
2022/01/01 07:41:15;;;;;;;25.43;17.80;;;7.20;99.90;;;;;;2013654;69;21054;-74
2022/01/01 07:43:41;;;;;;;27.73;18.55;;;7.20;99.90;;;;;;2017282;70;21159;-73
2022/01/01 07:46:07;;;;;;;23.77;17.73;;;7.10;99.90;;;;;;2020414;70;21177;-73
2022/01/01 07:48:33;;;;;;;35.30;19.25;;;7.10;99.90;;;;;;2022180;70;21058;-73
2022/01/01 07:50:59;;;;;;;24.77;17.75;;;7.10;99.90;;;;;;2018575;70;21051;-73
2022/01/01 07:53:26;;;;;;;27.20;18.85;;;7.20;99.90;;;;;;2015440;70;21148;-74
2022/01/01 07:55:52;;;;;;;26.45;19.20;;;7.20;99.90;;;;;;2021405;70;21206;-74
2022/01/01 07:58:18;;;;;;;36.95;18.45;;;7.20;99.90;;;;;;2015989;69;21127;-74
2022/01/01 08:00:44;;;;;;;34.78;18.57;;;7.20;99.90;;;;;;2014510;70;21063;-74
2022/01/01 08:03:10;;;;;;;32.13;20.97;;;7.10;99.90;;;;;;2017375;70;21136;-74
2022/01/01 08:05:36;;;;;;;40.25;20.92;;;7.10;99.90;;;;;;2017482;70;21225;-73
2022/01/01 08:08:02;;;;;;;31.37;20.75;;;7.00;99.90;;;;;;2016401;70;21066;-73
2022/01/01 08:10:28;;;;;;;34.05;19.92;;;6.90;99.90;;;;;;2022770;70;21483;-74
2022/01/01 08:12:55;;;;;;;32.15;18.87;;;6.90;99.90;;;;;;2020463;70;21478;-74
2022/01/01 08:15:21;;;;;;;30.32;18.95;;;6.90;99.90;;;;;;2022707;71;21050;-74
2022/01/01 08:17:47;;;;;;;29.20;19.82;;;6.90;99.90;;;;;;2016422;70;21172;-73
2022/01/01 08:20:13;;;;;;;26.17;17.92;;;6.90;99.90;;;;;;2022273;70;21121;-73
2022/01/01 08:22:40;;;;;;;22.58;16.25;;;6.90;99.90;;;;;;2015376;71;21053;-73
2022/01/01 08:25:06;;;;;;;26.25;17.52;;;6.90;99.90;;;;;;2013844;71;21673;-73
2022/01/01 08:27:32;;;;;;;27.35;16.65;;;6.90;99.90;;;;;;2025624;69;21569;-74
2022/01/01 08:29:58;;;;;;;20.82;15.45;;;7.00;99.90;;;;;;2016328;70;21510;-73
2022/01/01 08:32:24;;;;;;;23.07;15.93;;;7.10;99.90;;;;;;2018036;70;21418;-75
2022/01/01 08:34:52;;;;;;;29.05;16.05;;;7.20;99.90;;;;;;2019106;70;21560;-76
2022/01/01 08:37:18;;;;;;;26.90;15.83;;;7.10;99.90;;;;;;2018767;70;21131;-75
2022/01/01 08:39:44;;;;;;;22.42;15.18;;;7.20;99.90;;;;;;2017857;70;21105;-75
2022/01/01 08:42:11;;;;;;;22.62;16.15;;;7.30;99.90;;;;;;2028268;70;21059;-75
2022/01/01 08:44:37;;;;;;;24.05;15.20;;;7.40;99.90;;;;;;2019221;70;21069;-75
2022/01/01 08:47:03;;;;;;;20.95;14.40;;;7.40;99.90;;;;;;2018753;70;21061;-75
2022/01/01 08:49:29;;;;;;;24.32;15.45;;;7.40;99.90;;;;;;2023820;71;21148;-75
2022/01/01 08:51:56;;;;;;;23.05;14.90;;;7.50;99.90;;;;;;2020454;69;21049;-75
2022/01/01 08:54:22;;;;;;;21.02;14.20;;;7.50;99.90;;;;;;1977887;70;21177;-75
2022/01/01 08:56:48;;;;;;;26.00;14.83;;;7.80;99.90;;;;;;2011948;70;21198;-76
2022/01/01 08:59:15;;;;;;;21.75;13.68;;;7.90;99.90;;;;;;2011062;71;21051;-75
2022/01/01 09:01:42;;;;;;;22.17;14.68;;;8.00;99.90;;;;;;2018539;70;21541;-76
2022/01/01 09:04:08;;;;;;;18.67;13.75;;;8.30;99.90;;;;;;2017677;70;21544;-76
2022/01/01 09:06:34;;;;;;;19.87;13.35;;;8.40;99.90;;;;;;2022152;70;21408;-76
2022/01/01 09:09:00;;;;;;;22.58;13.40;;;8.70;99.90;;;;;;2021828;71;21035;-77
2022/01/01 09:11:26;;;;;;;18.98;13.85;;;8.70;99.90;;;;;;2017560;71;21055;-78
2022/01/01 09:13:52;;;;;;;16.87;13.00;;;8.80;99.90;;;;;;2021580;70;21233;-78
2022/01/01 09:16:19;;;;;;;21.95;12.55;;;9.00;99.90;;;;;;2017989;69;21111;-78
2022/01/01 09:18:45;;;;;;;17.40;12.07;;;9.20;99.90;;;;;;2014658;70;21023;-78
2022/01/01 09:21:11;;;;;;;24.02;12.65;;;9.30;99.90;;;;;;2019562;70;21120;-75
2022/01/01 09:23:38;;;;;;;18.95;12.68;;;9.40;99.90;;;;;;2015793;69;21556;-76
2022/01/01 09:26:04;;;;;;;20.05;13.18;;;9.60;99.90;;;;;;2017867;70;21113;-76
2022/01/01 09:28:30;;;;;;;20.90;13.40;;;9.80;99.90;;;;;;2013420;70;21131;-77
2022/01/01 09:30:56;;;;;;;18.85;12.43;;;9.90;99.90;;;;;;2016939;70;21063;-77
2022/01/01 09:33:23;;;;;;;18.02;11.85;;;10.00;99.90;;;;;;2018901;70;21109;-77
2022/01/01 09:35:49;;;;;;;14.87;10.68;;;10.20;99.90;;;;;;2019537;70;21143;-75
2022/01/01 09:38:16;;;;;;;15.72;11.00;;;10.30;99.90;;;;;;2016646;70;21032;-77
2022/01/01 09:40:42;;;;;;;14.73;10.98;;;10.40;99.90;;;;;;2015779;70;21106;-76
2022/01/01 09:43:08;;;;;;;17.90;10.20;;;10.60;99.90;;;;;;2026250;71;21102;-75
2022/01/01 09:45:34;;;;;;;16.20;10.28;;;10.70;99.90;;;;;;2018575;71;21440;-77
2022/01/01 09:48:00;;;;;;;12.75;9.85;;;10.70;99.90;;;;;;2014444;69;21527;-77
2022/01/01 09:50:26;;;;;;;11.18;8.28;;;10.90;99.90;;;;;;2016868;70;21592;-76
2022/01/01 09:52:52;;;;;;;16.48;9.90;;;11.20;99.90;;;;;;2014323;69;21525;-75
2022/01/01 09:55:18;;;;;;;14.85;9.48;;;11.40;99.90;;;;;;2020139;71;21140;-75
2022/01/01 09:57:45;;;;;;;12.98;8.85;;;11.70;99.90;;;;;;2016409;70;21455;-75
2022/01/01 10:00:11;;;;;;;11.48;8.63;;;11.90;99.90;;;;;;2015982;70;21542;-75
2022/01/01 10:02:37;;;;;;;11.22;8.05;;;12.10;99.90;;;;;;2024303;70;21024;-76
2022/01/01 10:05:03;;;;;;;13.18;8.45;;;12.10;99.90;;;;;;2015075;70;21111;-75
2022/01/01 10:07:29;;;;;;;14.83;8.80;;;12.10;99.90;;;;;;2023375;70;21051;-77
2022/01/01 10:09:55;;;;;;;14.25;8.00;;;12.20;99.90;;;;;;2023194;70;21024;-73
2022/01/01 10:12:21;;;;;;;9.68;8.23;;;12.10;99.90;;;;;;2020937;70;21036;-79
2022/01/01 10:14:48;;;;;;;12.70;7.65;;;12.20;99.90;;;;;;2023633;70;21047;-78
2022/01/01 10:17:14;;;;;;;10.82;7.37;;;12.30;99.90;;;;;;2016352;71;21063;-79
2022/01/01 10:19:40;;;;;;;10.70;7.95;;;12.40;99.90;;;;;;1980633;71;21059;-75
2022/01/01 10:22:07;;;;;;;15.45;7.72;;;12.70;99.90;;;;;;2025571;71;21058;-81
2022/01/01 10:30:02;;;;;;;12.53;6.95;;;13.10;99.90;;;;;;2020816;70;21071;-79
2022/01/01 10:32:28;;;;;;;11.03;7.03;;;12.80;99.90;;;;;;2017299;70;21069;-78
2022/01/01 10:34:54;;;;;;;12.85;7.72;;;12.60;99.90;;;;;;2018175;71;21099;-79
2022/01/01 10:37:21;;;;;;;12.40;6.95;;;12.90;99.90;;;;;;2014410;70;21061;-78
2022/01/01 10:39:47;;;;;;;13.35;8.00;;;12.90;99.90;;;;;;2019889;70;21051;-76
2022/01/01 10:42:13;;;;;;;16.37;9.15;;;12.90;99.90;;;;;;2020128;71;21117;-79
2022/01/01 10:44:40;;;;;;;15.55;8.73;;;13.00;99.90;;;;;;2017115;70;21059;-79
2022/01/01 10:47:06;;;;;;;9.65;7.97;;;13.10;99.90;;;;;;2025327;70;21087;-83
2022/01/01 10:49:51;;;;;;;10.23;7.83;;;13.20;99.90;;;;;;2020742;69;21132;-79
2022/01/01 10:52:03;;;;;;;11.70;7.83;;;13.10;99.90;;;;;;2021819;70;21102;-77
2022/01/01 10:54:29;;;;;;;11.00;7.33;;;13.30;99.90;;;;;;2020516;69;21053;-77
2022/01/01 10:56:55;;;;;;;12.23;8.03;;;13.70;99.90;;;;;;2028868;70;21024;-78
2022/01/01 10:59:21;;;;;;;10.65;7.50;;;13.60;99.90;;;;;;2018199;70;21193;-78
2022/01/01 11:01:49;;;;;;;11.90;7.72;;;13.20;99.90;;;;;;2016679;70;21058;-81
2022/01/01 11:04:15;;;;;;;13.13;7.75;;;13.40;99.90;;;;;;2020307;70;21478;-80
2022/01/01 11:06:42;;;;;;;10.98;7.80;;;13.70;99.90;;;;;;2017582;70;21490;-80
2022/01/01 11:09:13;;;;;;;13.38;7.62;;;13.60;99.90;;;;;;2016519;70;21099;-77
2022/01/01 11:11:36;;;;;;;12.95;6.95;;;13.90;99.90;;;;;;2016060;70;21203;-79
2022/01/01 11:14:04;;;;;;;11.25;7.15;;;13.80;99.90;;;;;;2018328;70;21106;-78
2022/01/01 11:16:30;;;;;;;11.88;6.97;;;13.70;99.90;;;;;;2015982;70;21084;-84
2022/01/01 11:18:56;;;;;;;11.90;6.58;;;13.70;99.90;;;;;;2018306;71;21062;-82
2022/01/01 11:21:22;;;;;;;7.80;6.25;;;14.20;99.90;;;;;;2023307;70;21102;-82
2022/01/01 11:23:49;;;;;;;8.43;6.65;;;14.10;99.90;;;;;;2016772;70;21054;-81
2022/01/01 11:26:15;;;;;;;9.55;6.05;;;14.10;99.90;;;;;;2017716;70;21058;-83
2022/01/01 11:28:41;;;;;;;6.15;5.08;;;13.80;99.90;;;;;;2020110;69;21091;-82
2022/01/01 11:31:08;;;;;;;10.32;6.05;;;13.70;99.90;;;;;;2015785;70;21144;-79
2022/01/01 11:33:34;;;;;;;8.88;5.62;;;13.50;99.90;;;;;;2020518;70;21067;-80
2022/01/01 11:36:00;;;;;;;7.17;6.00;;;13.50;99.90;;;;;;2018301;70;21188;-79
2022/01/01 11:38:26;;;;;;;11.30;6.25;;;14.10;99.90;;;;;;2016826;70;21059;-81
2022/01/01 11:40:53;;;;;;;8.95;6.22;;;14.40;99.90;;;;;;2023753;70;21131;-80
2022/01/01 11:43:19;;;;;;;8.40;5.90;;;14.40;99.90;;;;;;2030907;70;21514;-80
2022/01/01 11:45:45;;;;;;;7.40;6.03;;;14.50;99.90;;;;;;2025662;70;21549;-78
2022/01/01 11:48:11;;;;;;;8.60;5.80;;;14.10;99.90;;;;;;2020585;70;21420;-77
2022/01/01 11:50:37;;;;;;;9.38;5.40;;;14.70;99.90;;;;;;2020519;71;21474;-81
2022/01/01 11:53:04;;;;;;;9.88;5.47;;;14.90;99.90;;;;;;2021421;71;21466;-81
2022/01/01 11:55:30;;;;;;;7.53;5.22;;;14.80;99.90;;;;;;2029239;71;21112;-79
2022/01/01 11:57:58;;;;;;;8.58;5.40;;;15.70;99.90;;;;;;2022880;69;21032;-79
2022/01/01 12:00:24;;;;;;;5.40;4.85;;;16.00;99.90;;;;;;2030495;71;21035;-79
2022/01/01 12:02:51;;;;;;;6.75;5.25;;;16.20;99.90;;;;;;2023830;70;21065;-79
2022/01/01 12:05:17;;;;;;;7.55;4.95;;;16.90;99.90;;;;;;2012389;70;21482;-82
2022/01/01 12:07:44;;;;;;;7.45;4.40;;;16.80;99.90;;;;;;2015575;69;21059;-77
2022/01/01 12:10:11;;;;;;;7.97;4.95;;;16.80;99.90;;;;;;2024900;70;21066;-80
2022/01/01 12:12:37;;;;;;;6.58;4.75;;;16.60;99.90;;;;;;2016413;70;21058;-80
2022/01/01 12:15:03;;;;;;;9.38;4.60;;;16.10;99.90;;;;;;2017959;71;21063;-76
2022/01/01 12:17:30;;;;;;;5.83;4.20;;;16.50;99.90;;;;;;2030554;71;21113;-77
2022/01/01 12:19:56;;;;;;;7.35;4.67;;;16.50;99.90;;;;;;2021940;70;21188;-76
2022/01/01 12:22:22;;;;;;;6.35;4.60;;;17.00;99.90;;;;;;2022858;70;21028;-78
2022/01/01 12:24:48;;;;;;;8.28;4.87;;;17.10;99.90;;;;;;2020259;71;21059;-79
2022/01/01 12:27:14;;;;;;;6.17;4.25;;;17.10;99.90;;;;;;2016489;70;21145;-80
2022/01/01 12:29:40;;;;;;;5.85;4.33;;;17.00;99.90;;;;;;2014449;70;21111;-81
2022/01/01 12:32:08;;;;;;;11.08;4.35;;;16.30;99.90;;;;;;2015047;69;21026;-79
2022/01/01 12:34:36;;;;;;;4.83;3.80;;;16.40;99.90;;;;;;2021609;70;21057;-82
2022/01/01 12:37:02;;;;;;;10.90;5.00;;;16.90;99.90;;;;;;2020370;70;21074;-80